Terminal Aerodrome Forecast
Issued by NWS Newport/Morehead City, NC

Current Version | Previous Version | Text Only | Print | Product List | Glossary Off
Versions: 1 2 3 4 5 6 7 8 9 10 11 12 13 14 15 16 17 18

000
FTUS42 KMHX 231100
TAFEWN
TAF
KEWN 231120Z 2312/2412 06004KT P6SM OVC200
     FM231400 04010KT P6SM VCSH SCT025 OVC050
     FM232100 04011G18KT P6SM VCSH BKN035 OVC050
     FM240400 03009KT P6SM -RA BKN025 OVC040
     FM240600 03009KT 4SM -RA BR OVC015=

USA.gov is the U.S. government's official web portal to all federal, state and local government web resources and services.